Terminal Aerodrome Forecast
Issued by NWS

Home | Current Version | Previous Version | Text Only | Print | Product List | Glossary On
Versions: 1 2 3 4 5 6 7 8 9 10 11 12 13 14 15 16 17 18 19 20 21 22 23 24 25 26 27 28 29 30 31 32
000
FTUS44 KBMX 181241 AAA
TAFTCL
TAF AMD
KTCL 181241Z 1813/1912 15002KT P6SM -RA VCTS SCT020 BKN050CB
      TEMPO 1813/1815 2SM TSRA BKN020CB
     FM181700 18006KT 5SM -SHRA VCTS OVC035CB
     FM190100 20006KT P6SM VCSH BKN050
     FM190800 19005KT P6SM VCSH OVC025=

USA.gov is the U.S. government's official web portal to all federal, state and local government web resources and services.